createdAt,value
2023-04-26T00:00:43.381Z,9.13
2023-04-26T00:10:47.059Z,9.10
2023-04-26T00:20:49.429Z,9.08
2023-04-26T00:30:53.155Z,8.95
2023-04-26T00:40:55.508Z,8.82
2023-04-26T00:50:59.246Z,8.83
2023-04-26T01:01:02.480Z,8.74
2023-04-26T01:11:06.554Z,8.65
2023-04-26T01:21:09.068Z,8.51
2023-04-26T01:31:12.773Z,8.44
2023-04-26T01:41:15.169Z,8.46
2023-04-26T01:51:18.889Z,8.39
2023-04-26T02:01:21.475Z,8.36
2023-04-26T02:11:26.848Z,8.29
2023-04-26T02:21:30.659Z,8.07
2023-04-26T02:31:34.397Z,8.06
2023-04-26T02:41:36.893Z,7.95
2023-04-26T02:51:40.752Z,7.77
2023-04-26T03:01:43.423Z,7.87
2023-04-26T03:11:49.603Z,7.86
2023-04-26T03:21:52.552Z,7.78
2023-04-26T03:31:56.320Z,7.69
2023-04-26T03:41:58.721Z,7.57
2023-04-26T03:52:02.470Z,7.51
2023-04-26T04:02:05.024Z,7.36
2023-04-26T04:12:08.808Z,7.38
2023-04-26T04:22:11.250Z,7.34
2023-04-26T04:32:15.349Z,7.38
2023-04-26T04:42:18.101Z,7.36
2023-04-26T04:52:21.891Z,7.39
2023-04-26T05:02:25.553Z,7.49
2023-04-26T05:12:29.568Z,7.55
2023-04-26T05:22:31.963Z,7.61
2023-04-26T05:32:35.700Z,7.82
2023-04-26T05:42:38.355Z,7.81
2023-04-26T05:52:42.068Z,8.02
2023-04-26T06:02:45.946Z,8.08
2023-04-26T06:12:49.914Z,8.02
2023-04-26T06:22:52.309Z,8.15
2023-04-26T06:32:56.076Z,8.50
2023-04-26T06:42:58.473Z,8.41
2023-04-26T06:53:02.190Z,8.61
2023-04-26T07:03:04.739Z,8.76
2023-04-26T07:13:09.593Z,8.87
2023-04-26T07:23:12.162Z,9.01
2023-04-26T07:33:15.962Z,9.08
2023-04-26T07:43:18.495Z,9.25
2023-04-26T07:53:22.255Z,9.43
2023-04-26T08:03:24.712Z,9.66
2023-04-26T08:13:29.534Z,9.55
2023-04-26T08:23:34.694Z,9.86
2023-04-26T08:33:38.445Z,9.95
2023-04-26T08:43:41.125Z,10.21
2023-04-26T08:53:45.384Z,10.10
2023-04-26T09:03:48.001Z,10.17
2023-04-26T09:13:52.400Z,10.73
2023-04-26T09:23:57.911Z,10.85
2023-04-26T09:34:01.850Z,11.16
2023-04-26T09:44:04.265Z,11.06
2023-04-26T09:54:08.037Z,10.75
2023-04-26T10:04:10.602Z,11.07
2023-04-26T10:14:14.677Z,11.70
2023-04-26T10:24:17.288Z,11.77
2023-04-26T10:34:21.559Z,12.41
2023-04-26T10:44:38.309Z,13.07
2023-04-26T10:54:52.593Z,12.66
2023-04-26T11:04:55.053Z,12.64
2023-04-26T11:15:01.023Z,12.60
2023-04-26T11:25:03.504Z,12.59
2023-04-26T11:35:08.141Z,12.49
2023-04-26T11:45:11.442Z,12.93
2023-04-26T11:55:15.140Z,14.27
2023-04-26T12:05:24.531Z,14.31
2023-04-26T12:15:30.204Z,14.59
2023-04-26T12:25:33.220Z,15.30
2023-04-26T12:35:36.997Z,16.23
2023-04-26T12:45:39.396Z,15.76
2023-04-26T12:55:43.251Z,15.70
2023-04-26T13:05:45.988Z,15.78
2023-04-26T13:15:49.928Z,16.53
2023-04-26T13:25:54.041Z,15.91
2023-04-26T13:35:57.782Z,17.72
2023-04-26T13:46:00.445Z,15.90
2023-04-26T13:56:04.479Z,16.24
2023-04-26T14:06:07.075Z,15.72
2023-04-26T14:16:10.949Z,15.91
2023-04-26T14:26:13.493Z,17.29
2023-04-26T14:36:17.205Z,17.29
2023-04-26T14:46:19.621Z,17.19
2023-04-26T14:56:23.728Z,17.40
2023-04-26T15:06:27.118Z,17.31
2023-04-26T15:16:30.886Z,17.25
2023-04-26T15:26:33.450Z,16.86
2023-04-26T15:36:37.169Z,16.89
2023-04-26T15:46:39.570Z,17.78
2023-04-26T15:56:44.425Z,17.83
2023-04-26T16:06:46.828Z,17.74
2023-04-26T16:16:50.542Z,17.18
2023-04-26T16:26:53.071Z,16.96
2023-04-26T16:36:56.888Z,16.85
2023-04-26T16:46:59.854Z,16.93
2023-04-26T16:57:04.345Z,16.95
2023-04-26T17:07:07.455Z,16.80
2023-04-26T17:17:11.288Z,15.73
2023-04-26T17:27:13.682Z,15.47
2023-04-26T17:37:17.413Z,14.86
2023-04-26T17:47:19.774Z,16.39
2023-04-26T17:57:24.009Z,15.31
2023-04-26T18:07:26.404Z,14.20
2023-04-26T18:17:30.181Z,13.85
2023-04-26T18:27:32.671Z,13.76
2023-04-26T18:37:37.832Z,13.49
2023-04-26T18:47:40.252Z,13.43
2023-04-26T18:57:44.308Z,13.26
2023-04-26T19:07:47.017Z,14.63
2023-04-26T19:17:51.186Z,14.91
2023-04-26T19:27:54.027Z,14.58
2023-04-26T19:37:57.831Z,14.52
2023-04-26T19:48:00.232Z,13.14
2023-04-26T19:58:04.098Z,12.98
2023-04-26T20:08:06.672Z,12.73
2023-04-26T20:18:10.389Z,12.60
2023-04-26T20:28:12.825Z,12.44
2023-04-26T20:38:16.575Z,12.42
2023-04-26T20:48:18.976Z,12.25
2023-04-26T20:58:22.688Z,12.23
2023-04-26T21:08:25.264Z,12.09
2023-04-26T21:18:29.067Z,12.10
2023-04-26T21:28:31.453Z,11.90
2023-04-26T21:38:35.303Z,11.83
2023-04-26T21:48:38.781Z,11.61
2023-04-26T21:58:42.781Z,11.62
2023-04-26T22:08:45.290Z,11.56
2023-04-26T22:18:49.005Z,11.54
2023-04-26T22:28:51.468Z,11.59
2023-04-26T22:38:55.246Z,11.48
2023-04-26T22:48:57.707Z,11.39
2023-04-26T22:59:01.486Z,11.26
2023-04-26T23:09:03.921Z,11.05
2023-04-26T23:19:08.103Z,11.16
2023-04-26T23:29:10.932Z,11.03
2023-04-26T23:39:15.422Z,10.99
2023-04-26T23:49:17.974Z,10.88
2023-04-26T23:59:21.705Z,10.88
